Terminal Aerodrome Forecast
Issued by NWS

Home | Current Version | Previous Version | Text Only | Print | Product List | Glossary On
Versions: 1 2 3 4 5 6 7 8 9 10 11 12 13
032
FTUS44 KLUB 130526
TAFCDS
TAF
KCDS 130526Z 1306/1406 12011KT P6SM FEW250
     FM131000 10010KT 5SM BR BKN015
     FM131600 17014KT P6SM FEW030 SCT250=

USA.gov is the U.S. government's official web portal to all federal, state and local government web resources and services.